Time;durP1;ratioP1;P1;durP2;ratioP2;P2;SDS_P1;SDS_P2;PMS_P1;PMS_P2;Temp;Humidity;BMP_temperature;BMP_pressure;BME280_temperature;BME280_humidity;BME280_pressure;Samples;Min_cycle;Max_cycle;Signal;HPM_P1;HPM_P2
2022/11/25 00:01:55;;;;;;;;;;;;;;;21.09;27.89;97283.56;5076720;28;947;-73
2022/11/25 00:04:21;;;;;;;;;;;;;;;20.97;28.19;97290.06;5076555;28;1013;-73
2022/11/25 00:06:46;;;;;;;;;;;;;;;20.91;28.41;97301.16;5076903;28;916;-73
2022/11/25 00:09:12;;;;;;;;;;;;;;;20.70;28.53;97291.38;5058984;28;1012;-73
2022/11/25 00:11:38;;;;;;;;;;;;;;;21.66;27.23;97292.81;5076662;28;1897;-74
2022/11/25 00:14:04;;;;;;;;;;;;;;;21.38;27.38;97296.69;5076270;28;906;-73
2022/11/25 00:16:29;;;;;;;;;;;;;;;21.03;27.92;97296.69;5059040;28;954;-73
2022/11/25 00:18:55;;;;;;;;;;;;;;;21.03;28.20;97296.69;5076569;28;939;-73
2022/11/25 00:21:24;;;;;;;;;;;;;;;21.03;28.24;97296.69;5076577;28;909;-73
2022/11/25 00:23:50;;;;;;;;;;;;;;;20.89;28.23;97298.00;5076522;28;906;-73
2022/11/25 00:26:16;;;;;;;;;;;;;;;21.07;28.13;97294.53;5076377;28;875;-73
2022/11/25 00:28:42;;;;;;;;;;;;;;;21.30;27.76;97291.31;5076894;28;889;-73
2022/11/25 00:31:08;;;;;;;;;;;;;;;21.16;27.85;97297.44;5058057;28;1976;-73
2022/11/25 00:33:34;;;;;;;;;;;;;;;20.85;28.30;97296.53;5058292;28;853;-73
2022/11/25 00:36:01;;;;;;;;;;;;;;;21.18;27.52;97289.28;5076596;28;1014;-73
2022/11/25 00:38:26;;;;;;;;;;;;;;;21.03;27.81;97285.38;5057473;28;909;-74
2022/11/25 00:44:34;;;;;;;;;;;;;;;20.80;28.28;97295.09;5024025;28;1051;-73
2022/11/25 00:46:21;;;;;;;;;;;;;;;21.11;27.98;97298.03;5076342;28;879;-74
2022/11/25 00:48:46;;;;;;;;;;;;;;;19.76;27.90;97078.25;5076523;28;853;-73
2022/11/25 00:51:12;;;;;;;;;;;;;;;20.80;28.49;97303.56;5058169;28;1898;-73
2022/11/25 00:53:37;;;;;;;;;;;;;;;20.88;28.33;97301.28;5076163;28;901;-73
2022/11/25 00:56:12;;;;;;;;;;;;;;;20.93;28.21;97306.34;5075880;28;932;-76
2022/11/25 00:58:37;;;;;;;;;;;;;;;21.07;28.26;97308.69;5076600;28;958;-76
2022/11/25 01:01:03;;;;;;;;;;;;;;;21.22;27.56;97314.63;5058347;28;1123;-76
2022/11/25 01:03:28;;;;;;;;;;;;;;;21.04;28.08;97326.59;5024266;28;950;-76
2022/11/25 01:05:54;;;;;;;;;;;;;;;20.92;28.34;97328.19;5058069;28;1303;-76
2022/11/25 01:08:19;;;;;;;;;;;;;;;21.00;27.83;97320.25;5076310;28;946;-76
2022/11/25 01:10:45;;;;;;;;;;;;;;;20.97;27.86;97321.16;5076175;28;1906;-76
2022/11/25 01:13:10;;;;;;;;;;;;;;;20.98;27.96;97322.72;5058218;28;1304;-76
2022/11/25 01:15:36;;;;;;;;;;;;;;;21.22;27.71;97328.78;5076719;28;902;-76
2022/11/25 01:18:01;;;;;;;;;;;;;;;21.17;27.62;97321.66;5079664;28;880;-76
2022/11/25 01:20:27;;;;;;;;;;;;;;;21.06;27.73;97329.75;5079481;28;951;-76
2022/11/25 01:22:52;;;;;;;;;;;;;;;20.99;27.84;97332.81;5079425;28;957;-76
2022/11/25 01:25:17;;;;;;;;;;;;;;;21.12;27.84;97327.91;5079540;28;1035;-76
2022/11/25 01:27:43;;;;;;;;;;;;;;;20.93;28.11;97328.97;5079860;28;1031;-76
2022/11/25 01:30:09;;;;;;;;;;;;;;;21.30;27.62;97330.94;5079310;28;914;-76
2022/11/25 01:32:34;;;;;;;;;;;;;;;21.14;27.75;97328.25;5079423;28;1981;-76
2022/11/25 01:34:59;;;;;;;;;;;;;;;21.31;27.29;97321.19;5027085;28;980;-76
2022/11/25 01:37:25;;;;;;;;;;;;;;;21.05;27.86;97328.94;5061835;28;1429;-76
2022/11/25 01:39:50;;;;;;;;;;;;;;;20.76;28.27;97326.31;5079558;28;864;-76
2022/11/25 01:42:16;;;;;;;;;;;;;;;20.88;28.43;97329.53;5079622;28;879;-76
2022/11/25 01:44:42;;;;;;;;;;;;;;;21.18;27.77;97337.38;5056721;28;990;-76
2022/11/25 01:47:10;;;;;;;;;;;;;;;21.22;27.78;97334.44;5056826;28;1079;-76
2022/11/25 01:49:48;;;;;;;;;;;;;;;21.11;27.88;97337.63;5040249;28;1615;-76
2022/11/25 01:52:15;;;;;;;;;;;;;;;20.81;28.48;97336.25;5056609;28;1906;-76
2022/11/25 01:54:53;;;;;;;;;;;;;;;20.77;28.27;97336.34;5056860;28;999;-76
2022/11/25 01:57:23;;;;;;;;;;;;;;;20.75;28.29;97341.69;5040377;28;1154;-76
2022/11/25 01:59:49;;;;;;;;;;;;;;;20.84;28.48;97341.00;5040152;28;1531;-76
2022/11/25 02:02:15;;;;;;;;;;;;;;;21.08;28.22;97338.53;5056453;28;1212;-76
2022/11/25 02:04:40;;;;;;;;;;;;;;;21.07;27.91;97336.97;5040051;28;1275;-76
2022/11/25 02:07:09;;;;;;;;;;;;;;;20.74;28.66;97331.63;5056569;28;1095;-73
2022/11/25 02:09:36;;;;;;;;;;;;;;;20.93;28.07;97343.09;5039998;28;942;-73
2022/11/25 02:12:01;;;;;;;;;;;;;;;21.04;28.12;97352.03;5039743;28;1910;-73
2022/11/25 02:14:28;;;;;;;;;;;;;;;21.19;27.94;97361.63;5056421;28;910;-73
2022/11/25 02:16:53;;;;;;;;;;;;;;;20.80;28.19;97363.72;5043304;28;1602;-73
2022/11/25 02:19:21;;;;;;;;;;;;;;;20.95;27.97;97363.25;5044341;28;1207;-74
2022/11/25 02:21:49;;;;;;;;;;;;;;;20.85;28.27;97365.19;5043997;28;1217;-74
2022/11/25 02:24:38;;;;;;;;;;;;;;;21.21;27.80;97359.09;5044166;28;1048;-74
2022/11/25 02:27:03;;;;;;;;;;;;;;;21.28;27.48;97358.84;5019327;28;1186;-73
2022/11/25 02:29:31;;;;;;;;;;;;;;;21.29;27.42;97363.25;5019964;28;978;-73
2022/11/25 02:31:56;;;;;;;;;;;;;;;20.93;28.11;97360.06;5003202;28;1985;-73
2022/11/25 02:34:23;;;;;;;;;;;;;;;20.89;28.15;97362.25;5003270;28;1105;-73
2022/11/25 02:36:49;;;;;;;;;;;;;;;20.71;28.58;97360.00;5003287;28;1137;-73
2022/11/25 02:39:16;;;;;;;;;;;;;;;21.14;27.86;97355.72;5019412;28;1116;-73
2022/11/25 02:41:52;;;;;;;;;;;;;;;21.14;28.04;97362.19;4986984;28;1140;-73
2022/11/25 02:44:17;;;;;;;;;;;;;;;20.75;28.62;97346.56;5003310;28;1191;-73
2022/11/25 02:46:43;;;;;;;;;;;;;;;20.89;28.16;97354.56;5036007;28;1296;-73
2022/11/25 02:49:08;;;;;;;;;;;;;;;20.53;28.77;97349.31;5036057;28;1247;-73
2022/11/25 02:51:33;;;;;;;;;;;;;;;21.20;27.81;97351.88;4999459;28;1894;-73
2022/11/25 02:53:59;;;;;;;;;;;;;;;21.19;27.83;97355.97;4999521;28;1218;-73
2022/11/25 02:56:27;;;;;;;;;;;;;;;21.26;27.72;97352.06;4999536;28;1280;-73
2022/11/25 02:58:52;;;;;;;;;;;;;;;21.07;27.90;97346.25;4983356;28;1173;-73
2022/11/25 03:01:18;;;;;;;;;;;;;;;20.73;28.45;97357.53;5016137;28;958;-74
2022/11/25 03:03:43;;;;;;;;;;;;;;;20.85;28.37;97358.75;5006753;28;1127;-73
2022/11/25 03:06:08;;;;;;;;;;;;;;;20.95;28.40;97358.38;5035314;28;1119;-73
2022/11/25 03:08:34;;;;;;;;;;;;;;;21.03;28.12;97364.56;5035701;28;1070;-73
2022/11/25 03:11:04;;;;;;;;;;;;;;;21.09;28.30;97376.91;5003555;28;1979;-74
2022/11/25 03:13:29;;;;;;;;;;;;;;;20.76;28.56;97368.72;4995719;28;978;-73
2022/11/25 03:15:55;;;;;;;;;;;;;;;20.74;28.42;97376.88;4995849;28;1042;-73
2022/11/25 03:18:22;;;;;;;;;;;;;;;20.95;28.33;97374.56;4979651;28;1443;-73
2022/11/25 03:20:51;;;;;;;;;;;;;;;21.14;27.95;97370.69;4979801;28;1075;-73
2022/11/25 03:23:16;;;;;;;;;;;;;;;21.06;27.90;97363.69;5011193;28;1214;-73
2022/11/25 03:25:42;;;;;;;;;;;;;;;21.23;27.82;97364.28;5018869;28;1135;-74
2022/11/25 03:28:08;;;;;;;;;;;;;;;21.21;27.83;97359.09;5018617;28;1216;-73
2022/11/25 03:30:34;;;;;;;;;;;;;;;20.87;28.36;97367.56;5018536;28;965;-73
2022/11/25 03:33:01;;;;;;;;;;;;;;;20.79;28.33;97373.47;5018689;28;1255;-73
2022/11/25 03:35:26;;;;;;;;;;;;;;;20.56;28.67;97373.81;5035087;28;1487;-73
2022/11/25 03:37:52;;;;;;;;;;;;;;;20.76;28.33;97368.72;5034841;28;1452;-73
2022/11/25 03:40:18;;;;;;;;;;;;;;;20.65;28.53;97371.09;5017969;28;1444;-73
2022/11/25 03:42:44;;;;;;;;;;;;;;;21.21;27.91;97370.44;5018476;28;1187;-73
2022/11/25 03:45:11;;;;;;;;;;;;;;;21.20;27.81;97366.03;5050379;28;1175;-73
2022/11/25 03:47:38;;;;;;;;;;;;;;;21.30;27.70;97367.72;5043150;28;1256;-73
2022/11/25 03:50:04;;;;;;;;;;;;;;;21.06;27.98;97364.47;5058904;28;960;-73
2022/11/25 03:52:30;;;;;;;;;;;;;;;20.87;28.21;97373.22;5042417;28;1914;-74
2022/11/25 03:54:55;;;;;;;;;;;;;;;20.81;28.20;97370.97;5042244;28;1839;-76
2022/11/25 03:57:24;;;;;;;;;;;;;;;21.31;27.63;97383.44;5042793;28;1229;-76
2022/11/25 03:59:50;;;;;;;;;;;;;;;21.39;27.63;97397.31;5042074;28;1278;-76
2022/11/25 04:02:17;;;;;;;;;;;;;;;20.97;27.95;97400.34;5059084;28;1275;-76
2022/11/25 04:04:42;;;;;;;;;;;;;;;20.84;28.71;97410.91;5058943;28;1045;-76
2022/11/25 04:07:08;;;;;;;;;;;;;;;20.56;28.60;97416.22;5042323;28;1144;-76
2022/11/25 04:09:33;;;;;;;;;;;;;;;20.99;28.30;97403.53;5042491;28;1050;-77
2022/11/25 04:14:53;;;;;;;;;;;;;;;21.11;27.83;97405.53;5058577;28;1126;-76
2022/11/25 04:17:18;;;;;;;;;;;;;;;21.02;27.83;97408.25;5008449;28;1268;-76
2022/11/25 04:19:44;;;;;;;;;;;;;;;20.98;28.12;97411.19;5037641;28;1140;-76
2022/11/25 04:22:10;;;;;;;;;;;;;;;20.99;28.19;97414.84;5037473;28;1282;-77
2022/11/25 04:24:39;;;;;;;;;;;;;;;20.70;28.59;97415.75;5038421;28;1277;-76
2022/11/25 04:27:05;;;;;;;;;;;;;;;21.07;27.99;97421.81;5021275;28;1257;-76
2022/11/25 04:29:31;;;;;;;;;;;;;;;21.17;27.98;97419.88;5021251;28;1076;-75
2022/11/25 04:31:59;;;;;;;;;;;;;;;20.63;28.69;97420.88;5037436;28;1915;-76
2022/11/25 04:34:25;;;;;;;;;;;;;;;20.84;28.47;97425.03;5070866;28;1207;-75
2022/11/25 04:36:52;;;;;;;;;;;;;;;20.71;28.53;97425.81;5004844;28;1309;-76
2022/11/25 04:39:17;;;;;;;;;;;;;;;21.48;27.49;97423.66;5054249;28;1163;-76
2022/11/25 04:41:43;;;;;;;;;;;;;;;21.33;27.74;97434.69;5032629;28;2420;-76
2022/11/25 04:44:09;;;;;;;;;;;;;;;21.14;28.03;97438.56;5000959;28;1854;-76
2022/11/25 04:46:36;;;;;;;;;;;;;;;20.75;28.62;97426.50;5001173;28;1582;-76
2022/11/25 04:49:02;;;;;;;;;;;;;;;20.62;28.80;97437.00;5017670;28;1027;-76
2022/11/25 04:51:28;;;;;;;;;;;;;;;20.60;29.11;97428.19;5036986;28;1981;-76
2022/11/25 04:53:58;;;;;;;;;;;;;;;21.14;27.97;97438.56;5042114;28;1071;-75
2022/11/25 04:56:24;;;;;;;;;;;;;;;21.03;28.35;97432.47;5042577;28;1253;-76
2022/11/25 05:01:39;;;;;;;;;;;;;;;20.90;28.33;97440.19;5025292;28;1710;-76
2022/11/25 05:04:17;;;;;;;;;;;;;;;20.68;28.67;97429.56;5027565;28;1260;-76
2022/11/25 05:06:42;;;;;;;;;;;;;;;20.61;28.98;97432.59;5042232;28;1267;-76
2022/11/25 05:09:10;;;;;;;;;;;;;;;20.88;28.63;97432.16;5041545;28;1270;-76
2022/11/25 05:11:37;;;;;;;;;;;;;;;21.23;27.91;97430.16;5040678;28;1949;-76
2022/11/25 05:14:03;;;;;;;;;;;;;;;20.69;28.68;97436.81;5000910;28;1212;-76
2022/11/25 05:16:29;;;;;;;;;;;;;;;20.74;28.72;97433.41;5001251;28;1101;-76
2022/11/25 05:18:55;;;;;;;;;;;;;;;20.71;28.65;97428.66;4983690;28;1526;-76
2022/11/25 05:21:22;;;;;;;;;;;;;;;20.74;28.75;97439.06;5001241;28;1246;-76
2022/11/25 05:23:48;;;;;;;;;;;;;;;21.36;27.72;97443.53;4999279;28;1540;-76
2022/11/25 05:26:13;;;;;;;;;;;;;;;21.15;28.02;97437.31;4981591;28;1570;-76
2022/11/25 05:28:42;;;;;;;;;;;;;;;21.30;27.76;97446.94;4998002;28;1334;-76
2022/11/25 05:31:09;;;;;;;;;;;;;;;21.11;28.28;97445.13;4997706;28;1910;-76
2022/11/25 05:33:35;;;;;;;;;;;;;;;21.00;28.24;97444.69;4996144;28;1501;-76
2022/11/25 05:36:03;;;;;;;;;;;;;;;20.61;28.88;97445.94;4981157;28;1195;-76
2022/11/25 05:38:41;;;;;;;;;;;;;;;20.68;28.86;97440.88;4928460;29;1179;-76
2022/11/25 05:41:09;;;;;;;;;;;;;;;20.84;28.48;97442.78;4927328;29;1436;-76
2022/11/25 05:43:36;;;;;;;;;;;;;;;20.90;28.78;97446.63;4941619;29;1526;-76
2022/11/25 05:46:05;;;;;;;;;;;;;;;21.16;28.37;97458.69;4926934;29;1709;-76
2022/11/25 05:48:31;;;;;;;;;;;;;;;20.74;28.77;97464.50;4942936;29;1320;-76
2022/11/25 05:51:00;;;;;;;;;;;;;;;20.62;28.95;97470.94;4942472;29;1971;-76
2022/11/25 05:53:27;;;;;;;;;;;;;;;20.60;28.89;97479.09;4925931;29;1492;-76
2022/11/25 05:55:55;;;;;;;;;;;;;;;20.87;28.71;97489.94;4942654;29;1271;-76
2022/11/25 05:58:31;;;;;;;;;;;;;;;20.99;28.67;97500.47;4966426;28;1381;-77
2022/11/25 06:00:58;;;;;;;;;;;;;;;21.27;27.88;97506.44;4997529;28;987;-76
2022/11/25 06:03:25;;;;;;;;;;;;;;;20.99;28.73;97516.66;4978226;28;1501;-76
2022/11/25 06:05:50;;;;;;;;;;;;;;;20.62;29.02;97518.19;4965126;28;1086;-76
2022/11/25 06:08:16;;;;;;;;;;;;;;;20.85;28.62;97528.41;4980938;28;1523;-76
2022/11/25 06:10:41;;;;;;;;;;;;;;;21.13;28.40;97535.19;4980918;28;1963;-77
2022/11/25 06:13:07;;;;;;;;;;;;;;;20.91;28.64;97532.25;4979521;28;1501;-76
2022/11/25 06:15:33;;;;;;;;;;;;;;;21.14;28.34;97540.41;4998772;28;1194;-76
2022/11/25 06:17:59;;;;;;;;;;;;;;;20.73;28.65;97544.91;5024334;28;1430;-76
2022/11/25 06:20:26;;;;;;;;;;;;;;;20.93;28.69;97552.38;5024906;28;1114;-76
2022/11/25 06:22:53;;;;;;;;;;;;;;;20.59;29.16;97558.69;5038643;28;1511;-76
2022/11/25 06:25:26;;;;;;;;;;;;;;;21.13;28.48;97564.28;5040893;28;1112;-76
2022/11/25 06:27:52;;;;;;;;;;;;;;;21.05;28.43;97568.59;5024066;28;1100;-76
2022/11/25 06:30:17;;;;;;;;;;;;;;;20.96;28.51;97574.13;5039565;28;1666;-76
2022/11/25 06:32:52;;;;;;;;;;;;;;;20.94;28.57;97570.97;5025049;28;1910;-76
2022/11/25 06:35:21;;;;;;;;;;;;;;;20.80;28.87;97577.84;5024253;28;1246;-76
2022/11/25 06:37:51;;;;;;;;;;;;;;;20.86;28.87;97575.25;5040326;28;1093;-76
2022/11/25 06:40:17;;;;;;;;;;;;;;;21.23;28.32;97582.94;5056594;28;1538;-76
2022/11/25 06:42:42;;;;;;;;;;;;;;;21.18;28.31;97574.25;5022858;28;967;-76
2022/11/25 06:45:08;;;;;;;;;;;;;;;21.18;28.50;97572.19;5040153;28;918;-76
2022/11/25 06:47:33;;;;;;;;;;;;;;;20.81;28.76;97568.88;5017266;28;990;-76
2022/11/25 06:49:59;;;;;;;;;;;;;;;20.71;29.08;97572.84;5053460;28;1384;-76
2022/11/25 06:52:24;;;;;;;;;;;;;;;20.80;29.00;97581.44;5040145;28;1967;-76
2022/11/25 06:54:50;;;;;;;;;;;;;;;21.23;28.67;97580.13;5058315;28;915;-76
2022/11/25 06:57:16;;;;;;;;;;;;;;;21.20;28.68;97583.09;5006341;28;942;-76
2022/11/25 06:59:42;;;;;;;;;;;;;;;20.97;28.87;97581.34;5039585;28;1725;-76
2022/11/25 07:02:08;;;;;;;;;;;;;;;20.89;28.92;97585.66;5039791;28;1029;-76
2022/11/25 07:04:34;;;;;;;;;;;;;;;20.80;29.35;97595.59;5040106;28;960;-76
2022/11/25 07:07:00;;;;;;;;;;;;;;;20.79;29.01;97610.19;5057528;28;987;-76
2022/11/25 07:09:25;;;;;;;;;;;;;;;20.69;29.22;97606.41;5038677;28;1562;-76
2022/11/25 07:11:50;;;;;;;;;;;;;;;21.14;28.78;97605.50;5057513;28;1905;-76
2022/11/25 07:14:16;;;;;;;;;;;;;;;21.24;28.46;97600.72;5056653;28;915;-76
2022/11/25 07:16:42;;;;;;;;;;;;;;;20.81;29.06;97608.47;5057351;28;969;-76
2022/11/25 07:19:08;;;;;;;;;;;;;;;20.94;29.16;97604.91;5056121;28;1483;-76
2022/11/25 07:21:35;;;;;;;;;;;;;;;20.67;29.54;97611.72;5039606;28;1575;-76
2022/11/25 07:24:01;;;;;;;;;;;;;;;20.71;29.49;97609.59;5022233;28;1088;-75
2022/11/25 07:26:27;;;;;;;;;;;;;;;21.27;28.76;97611.94;5039534;28;1255;-76
2022/11/25 07:28:53;;;;;;;;;;;;;;;21.12;28.71;97610.78;5054960;28;1475;-76
2022/11/25 07:31:26;;;;;;;;;;;;;;;20.69;29.48;97617.72;5039206;28;1979;-76
2022/11/25 07:33:52;;;;;;;;;;;;;;;20.81;29.22;97614.13;5039322;28;998;-76
2022/11/25 07:36:17;;;;;;;;;;;;;;;20.62;29.55;97615.09;5057315;28;1140;-76
2022/11/25 07:38:43;;;;;;;;;;;;;;;21.16;29.07;97624.84;5055486;28;1506;-76
2022/11/25 07:41:09;;;;;;;;;;;;;;;21.04;29.00;97634.91;5056786;28;949;-76
2022/11/25 07:43:34;;;;;;;;;;;;;;;20.87;29.25;97639.03;5039109;28;972;-76
2022/11/25 07:46:20;;;;;;;;;;;;;;;20.81;29.50;97642.41;5057095;28;952;-76
2022/11/25 07:48:46;;;;;;;;;;;;;;;20.59;29.79;97641.44;5054648;28;1487;-76
2022/11/25 07:51:15;;;;;;;;;;;;;;;20.85;29.70;97641.53;5037844;28;1895;-76
2022/11/25 07:53:41;;;;;;;;;;;;;;;21.15;28.84;97648.72;5057275;28;941;-76
2022/11/25 07:56:06;;;;;;;;;;;;;;;21.00;29.42;97651.19;5056903;28;902;-76
2022/11/25 07:58:32;;;;;;;;;;;;;;;21.05;29.39;97653.44;5053190;28;1483;-76
2022/11/25 08:01:00;;;;;;;;;;;;;;;20.93;29.51;97651.38;5055308;28;1478;-76
2022/11/25 08:03:26;;;;;;;;;;;;;;;20.78;29.43;97660.28;5056866;28;981;-76
2022/11/25 08:05:51;;;;;;;;;;;;;;;21.01;29.64;97661.25;5056738;28;968;-76
2022/11/25 08:08:16;;;;;;;;;;;;;;;21.02;29.51;97663.63;5017795;28;1475;-76
2022/11/25 08:10:42;;;;;;;;;;;;;;;21.11;29.03;97665.78;5054650;28;1026;-76
2022/11/25 08:13:07;;;;;;;;;;;;;;;20.73;29.75;97660.84;5056348;28;1981;-76
2022/11/25 08:15:33;;;;;;;;;;;;;;;20.85;29.40;97664.16;5056149;28;1062;-76
2022/11/25 08:17:58;;;;;;;;;;;;;;;20.71;29.95;97659.69;5056197;28;1088;-76
2022/11/25 08:20:24;;;;;;;;;;;;;;;21.19;29.24;97667.19;5055800;28;1704;-76
2022/11/25 08:22:49;;;;;;;;;;;;;;;21.19;29.19;97672.84;5056213;28;1036;-76
2022/11/25 08:25:15;;;;;;;;;;;;;;;20.89;29.48;97682.59;5021185;28;953;-76
2022/11/25 08:27:41;;;;;;;;;;;;;;;21.03;29.53;97676.50;5056283;28;941;-76
2022/11/25 08:30:07;;;;;;;;;;;;;;;20.76;29.88;97679.72;5051860;28;1503;-76
2022/11/25 08:32:36;;;;;;;;;;;;;;;21.43;29.12;97670.50;5034008;28;1991;-76
2022/11/25 08:35:01;;;;;;;;;;;;;;;21.21;28.93;97670.34;5036835;28;1588;-76
2022/11/25 08:37:29;;;;;;;;;;;;;;;21.21;29.30;97676.00;5002481;28;1214;-76
2022/11/25 08:39:54;;;;;;;;;;;;;;;21.03;29.30;97675.72;5051063;28;1491;-76
2022/11/25 08:42:20;;;;;;;;;;;;;;;20.86;29.50;97679.88;5056235;28;925;-76
2022/11/25 08:44:49;;;;;;;;;;;;;;;20.63;30.11;97664.75;5055755;28;898;-76
2022/11/25 08:47:15;;;;;;;;;;;;;;;21.05;29.38;97674.03;5038666;28;998;-76
2022/11/25 08:49:40;;;;;;;;;;;;;;;21.02;29.48;97679.78;5056087;28;930;-76
2022/11/25 08:52:05;;;;;;;;;;;;;;;21.08;29.35;97678.00;5037141;28;1910;-76
2022/11/25 08:54:31;;;;;;;;;;;;;;;20.57;30.10;97669.34;5038196;28;946;-76
2022/11/25 08:56:57;;;;;;;;;;;;;;;20.63;30.11;97684.53;5056021;28;883;-76
2022/11/25 08:59:24;;;;;;;;;;;;;;;21.01;29.43;97689.53;5055959;28;887;-76
2022/11/25 09:01:49;;;;;;;;;;;;;;;21.02;29.34;97685.44;5038341;28;981;-76
2022/11/25 09:04:14;;;;;;;;;;;;;;;21.06;29.50;97686.16;5055869;28;1459;-76
2022/11/25 09:06:40;;;;;;;;;;;;;;;20.54;30.14;97684.38;5053381;28;1765;-76
2022/11/25 09:09:05;;;;;;;;;;;;;;;20.51;30.17;97691.72;5055827;28;1199;-76
2022/11/25 09:11:31;;;;;;;;;;;;;;;20.63;30.24;97681.72;5055928;28;1910;-76
2022/11/25 09:13:56;;;;;;;;;;;;;;;20.94;29.52;97696.19;5056020;28;1032;-76
2022/11/25 09:16:22;;;;;;;;;;;;;;;21.00;29.54;97694.41;5055838;28;1042;-76
2022/11/25 09:18:47;;;;;;;;;;;;;;;21.01;29.40;97695.19;5038312;28;1045;-76
2022/11/25 09:21:13;;;;;;;;;;;;;;;20.75;30.00;97688.66;5055023;28;1447;-76
2022/11/25 09:23:39;;;;;;;;;;;;;;;20.92;29.51;97693.00;5038379;28;960;-76
2022/11/25 09:26:05;;;;;;;;;;;;;;;20.79;29.87;97707.13;5055876;28;1050;-76
2022/11/25 09:28:30;;;;;;;;;;;;;;;20.91;29.59;97702.72;5055476;28;1077;-76
2022/11/25 09:30:56;;;;;;;;;;;;;;;21.23;29.00;97707.44;5055343;28;1898;-76
2022/11/25 09:33:21;;;;;;;;;;;;;;;21.11;29.25;97701.78;5053545;28;1683;-76
2022/11/25 09:35:49;;;;;;;;;;;;;;;20.81;29.49;97692.53;5054653;28;1464;-76
2022/11/25 09:38:14;;;;;;;;;;;;;;;20.96;29.38;97698.56;5040923;28;961;-76
2022/11/25 09:40:40;;;;;;;;;;;;;;;20.89;29.53;97698.78;5059431;28;920;-76
2022/11/25 09:49:08;;;;;;;;;;;;;;;20.75;29.57;97700.75;5058800;28;979;-76
2022/11/25 09:51:40;;;;;;;;;;;;;;;20.69;29.73;97702.53;4977760;28;2041;-76
2022/11/25 09:54:08;;;;;;;;;;;;;;;20.79;29.55;97707.13;4977945;28;982;-76
2022/11/25 09:56:34;;;;;;;;;;;;;;;21.25;28.85;97710.63;4978107;28;902;-76
2022/11/25 09:59:26;;;;;;;;;;;;;;;21.27;28.91;97707.34;4960724;28;1548;-76
2022/11/25 10:01:57;;;;;;;;;;;;;;;21.05;28.88;97713.66;4882680;29;1082;-76
2022/11/25 10:04:33;;;;;;;;;;;;;;;20.74;29.74;97710.47;4882950;29;1095;-76
2022/11/25 10:07:00;;;;;;;;;;;;;;;20.91;29.41;97713.25;4874255;29;1806;-76
2022/11/25 10:09:27;;;;;;;;;;;;;;;20.86;29.29;97711.75;4878978;29;1830;-76
2022/11/25 10:11:53;;;;;;;;;;;;;;;21.32;28.81;97715.31;4882543;29;1911;-76
2022/11/25 10:14:19;;;;;;;;;;;;;;;21.26;29.13;97711.44;4882452;29;1060;-76
2022/11/25 10:16:51;;;;;;;;;;;;;;;20.97;29.18;97723.56;4882001;29;1952;-76
2022/11/25 10:19:33;;;;;;;;;;;;;;;20.75;29.81;97712.06;4900940;29;927;-76
2022/11/25 10:22:00;;;;;;;;;;;;;;;20.64;29.71;97710.78;4900890;29;1613;-76
2022/11/25 10:24:26;;;;;;;;;;;;;;;21.25;29.38;97721.16;4900907;29;1600;-76
2022/11/25 10:26:54;;;;;;;;;;;;;;;21.06;29.34;97722.91;4900046;29;1717;-76
2022/11/25 10:29:23;;;;;;;;;;;;;;;21.26;29.18;97723.53;4946667;29;1918;-76
2022/11/25 10:31:49;;;;;;;;;;;;;;;21.51;28.83;97722.81;4942193;29;1978;-76
2022/11/25 10:34:24;;;;;;;;;;;;;;;20.93;29.45;97727.72;4957777;29;1789;-76
2022/11/25 10:36:50;;;;;;;;;;;;;;;20.80;29.69;97731.31;4919432;29;1084;-76
2022/11/25 10:39:23;;;;;;;;;;;;;;;20.44;30.10;97725.00;4944963;28;1518;-76
2022/11/25 10:42:00;;;;;;;;;;;;;;;21.12;29.20;97718.28;4980575;28;1076;-76
2022/11/25 10:44:27;;;;;;;;;;;;;;;21.11;29.10;97733.69;4995683;28;1814;-76
2022/11/25 10:46:58;;;;;;;;;;;;;;;21.23;28.92;97732.91;4995391;28;1003;-76
2022/11/25 10:49:27;;;;;;;;;;;;;;;20.88;29.60;97736.75;4994545;28;1538;-76
2022/11/25 10:51:53;;;;;;;;;;;;;;;20.95;29.30;97739.41;4963738;28;1907;-76
2022/11/25 10:54:20;;;;;;;;;;;;;;;20.68;29.64;97729.25;4980676;28;1749;-77
2022/11/25 10:56:57;;;;;;;;;;;;;;;21.36;28.84;97737.88;4980285;28;929;-76
2022/11/25 10:59:24;;;;;;;;;;;;;;;21.31;28.63;97737.16;4996125;28;1033;-77
2022/11/25 11:01:50;;;;;;;;;;;;;;;21.37;28.62;97739.44;4981594;28;1192;-76
2022/11/25 11:04:17;;;;;;;;;;;;;;;20.89;29.26;97736.34;4977074;28;959;-76
2022/11/25 11:06:46;;;;;;;;;;;;;;;20.91;29.15;97741.53;4979542;28;1792;-76
2022/11/25 11:09:30;;;;;;;;;;;;;;;20.84;29.36;97747.41;5035576;28;1009;-76
2022/11/25 11:11:56;;;;;;;;;;;;;;;20.92;29.54;97754.44;5052315;28;1906;-76
2022/11/25 11:14:21;;;;;;;;;;;;;;;20.89;29.46;97749.69;5055311;28;1886;-76
2022/11/25 11:16:51;;;;;;;;;;;;;;;21.18;29.15;97750.44;5055304;28;990;-76
2022/11/25 11:19:24;;;;;;;;;;;;;;;20.93;29.17;97750.34;5054650;28;1793;-77
2022/11/25 11:21:50;;;;;;;;;;;;;;;20.83;29.28;97752.28;5022182;28;1005;-76
2022/11/25 11:24:33;;;;;;;;;;;;;;;20.69;29.41;97747.78;5057460;28;987;-77
2022/11/25 11:27:03;;;;;;;;;;;;;;;21.20;28.72;97747.19;5057680;28;904;-76
2022/11/25 11:29:28;;;;;;;;;;;;;;;21.17;28.70;97751.69;5039163;28;918;-76
2022/11/25 11:32:03;;;;;;;;;;;;;;;21.35;28.79;97756.06;5056289;28;1910;-76
2022/11/25 11:34:32;;;;;;;;;;;;;;;20.61;29.64;97751.22;5039284;28;1335;-76
2022/11/25 11:37:12;;;;;;;;;;;;;;;20.88;29.20;97750.91;5057571;28;1041;-76
2022/11/25 11:39:47;;;;;;;;;;;;;;;20.65;29.50;97757.59;5039317;28;905;-76
2022/11/25 11:42:15;;;;;;;;;;;;;;;21.27;28.52;97758.28;5056126;28;1895;-76
2022/11/25 11:44:43;;;;;;;;;;;;;;;21.39;28.35;97756.75;4992526;28;2220;-76
2022/11/25 11:47:12;;;;;;;;;;;;;;;20.96;28.97;97766.44;5014825;28;970;-76
2022/11/25 11:49:44;;;;;;;;;;;;;;;21.27;28.75;97763.94;5014897;28;928;-76
2022/11/25 11:52:28;;;;;;;;;;;;;;;20.97;28.92;97759.53;4998472;28;1907;-76
2022/11/25 11:55:20;;;;;;;;;;;;;;;20.99;29.15;97759.91;4998131;28;930;-76
2022/11/25 11:58:06;;;;;;;;;;;;;;;21.02;28.82;97761.81;4956264;29;984;-76
2022/11/25 12:00:33;;;;;;;;;;;;;;;21.09;28.76;97758.81;4886543;29;1953;-76
2022/11/25 12:03:05;;;;;;;;;;;;;;;20.81;29.50;97764.00;4894298;29;2091;-76
2022/11/25 12:05:32;;;;;;;;;;;;;;;20.76;29.57;97764.53;4899122;29;1046;-76
2022/11/25 12:08:16;;;;;;;;;;;;;;;21.19;28.84;97771.88;4884152;29;984;-76
2022/11/25 12:10:43;;;;;;;;;;;;;;;20.95;29.39;97770.53;4899220;29;960;-76
2022/11/25 12:13:17;;;;;;;;;;;;;;;21.18;28.72;97778.75;4898988;29;1911;-76
2022/11/25 12:15:56;;;;;;;;;;;;;;;20.85;29.44;97771.59;4908070;29;2184;-76
2022/11/25 12:18:27;;;;;;;;;;;;;;;20.89;29.19;97772.31;4918079;29;1008;-76
2022/11/25 12:20:56;;;;;;;;;;;;;;;20.79;29.25;97774.97;4917832;29;929;-76
2022/11/25 12:23:22;;;;;;;;;;;;;;;21.29;28.50;97779.22;4917988;29;1023;-76
2022/11/25 12:25:47;;;;;;;;;;;;;;;21.12;28.83;97774.09;4917982;29;1343;-76
2022/11/25 12:28:17;;;;;;;;;;;;;;;21.27;28.56;97776.06;4917852;29;1113;-76
2022/11/25 12:30:55;;;;;;;;;;;;;;;20.66;29.44;97774.09;4917156;29;2134;-76
2022/11/25 12:33:28;;;;;;;;;;;;;;;20.72;29.46;97775.16;4917730;29;1907;-76
2022/11/25 12:36:03;;;;;;;;;;;;;;;20.71;29.75;97779.22;4920805;29;1076;-75
2022/11/25 12:38:49;;;;;;;;;;;;;;;21.17;28.80;97782.81;5004538;28;1040;-76
2022/11/25 12:41:34;;;;;;;;;;;;;;;21.12;28.74;97774.88;4955796;29;1058;-75
2022/11/25 12:44:04;;;;;;;;;;;;;;;21.03;29.27;97771.91;4955840;29;963;-76
2022/11/25 12:46:37;;;;;;;;;;;;;;;20.88;29.19;97765.03;4957284;28;1970;-76
2022/11/25 12:49:03;;;;;;;;;;;;;;;20.88;29.43;97765.03;4959228;28;1029;-76
2022/11/25 12:51:34;;;;;;;;;;;;;;;20.83;29.48;97769.22;4959222;28;1906;-76
2022/11/25 12:54:10;;;;;;;;;;;;;;;21.25;28.58;97772.91;4975199;28;944;-76
2022/11/25 12:56:51;;;;;;;;;;;;;;;21.02;29.13;97782.41;4958929;28;953;-76
2022/11/25 12:59:39;;;;;;;;;;;;;;;20.93;29.34;97781.47;4958226;28;2118;-76
2022/11/25 13:02:07;;;;;;;;;;;;;;;20.54;29.99;97778.44;4936413;29;1006;-76
2022/11/25 13:04:41;;;;;;;;;;;;;;;20.73;29.60;97773.94;4936615;29;945;-76
2022/11/25 13:07:16;;;;;;;;;;;;;;;20.87;29.43;97780.44;4936354;29;920;-76
2022/11/25 13:10:00;;;;;;;;;;;;;;;21.39;28.60;97779.41;4934962;29;2202;-76
2022/11/25 13:12:30;;;;;;;;;;;;;;;21.19;28.77;97783.19;4937707;29;1978;-76
2022/11/25 13:15:01;;;;;;;;;;;;;;;21.26;28.52;97779.34;4940471;29;976;-76
2022/11/25 13:17:27;;;;;;;;;;;;;;;20.97;29.19;97790.66;4931433;28;1087;-76
2022/11/25 13:20:11;;;;;;;;;;;;;;;20.86;29.27;97790.16;4981738;28;948;-76